sensor_id;sensor_type;location;lat;lon;timestamp;pressure;altitude;pressure_sealevel;temperature;humidity
29063;BME280;71206;48.564;-123.458;2023-11-18T00:02:18;100865.67;;;10.82;52.61
29063;BME280;71206;48.564;-123.458;2023-11-18T00:04:38;100861.34;;;11.02;52.30
29063;BME280;71206;48.564;-123.458;2023-11-18T00:07:03;100861.13;;;11.08;52.79
29063;BME280;71206;48.564;-123.458;2023-11-18T00:09:28;100858.42;;;10.20;54.74
29063;BME280;71206;48.564;-123.458;2023-11-18T00:11:53;100858.11;;;10.52;54.54
29063;BME280;71206;48.564;-123.458;2023-11-18T00:14:19;100860.10;;;10.76;54.34
29063;BME280;71206;48.564;-123.458;2023-11-18T00:16:44;100853.21;;;10.88;53.27
29063;BME280;71206;48.564;-123.458;2023-11-18T00:19:09;100850.52;;;10.30;54.99
29063;BME280;71206;48.564;-123.458;2023-11-18T00:21:35;100853.49;;;9.95;57.19
29063;BME280;71206;48.564;-123.458;2023-11-18T00:24:01;100854.04;;;9.71;60.03
29063;BME280;71206;48.564;-123.458;2023-11-18T00:26:26;100849.76;;;10.61;56.17
29063;BME280;71206;48.564;-123.458;2023-11-18T00:28:53;100846.22;;;9.56;59.20
29063;BME280;71206;48.564;-123.458;2023-11-18T00:31:16;100844.53;;;8.88;61.23
29063;BME280;71206;48.564;-123.458;2023-11-18T00:33:42;100841.46;;;9.75;60.46
29063;BME280;71206;48.564;-123.458;2023-11-18T00:36:09;100836.87;;;9.79;58.01
29063;BME280;71206;48.564;-123.458;2023-11-18T00:38:33;100834.94;;;9.95;57.59
29063;BME280;71206;48.564;-123.458;2023-11-18T00:40:58;100840.23;;;9.54;57.83
29063;BME280;71206;48.564;-123.458;2023-11-18T00:43:24;100838.87;;;9.12;60.61
29063;BME280;71206;48.564;-123.458;2023-11-18T00:45:50;100836.81;;;10.04;58.08
29063;BME280;71206;48.564;-123.458;2023-11-18T00:48:15;100834.41;;;9.54;57.52
29063;BME280;71206;48.564;-123.458;2023-11-18T00:50:41;100832.52;;;9.12;58.13
29063;BME280;71206;48.564;-123.458;2023-11-18T00:53:05;100828.05;;;9.80;57.60
29063;BME280;71206;48.564;-123.458;2023-11-18T00:55:30;100826.83;;;9.36;58.65
29063;BME280;71206;48.564;-123.458;2023-11-18T00:57:55;100827.62;;;8.99;59.27
29063;BME280;71206;48.564;-123.458;2023-11-18T01:00:20;100825.42;;;9.01;60.32
29063;BME280;71206;48.564;-123.458;2023-11-18T01:02:47;100823.18;;;9.26;58.56
29063;BME280;71206;48.564;-123.458;2023-11-18T01:05:12;100823.11;;;9.79;57.13
29063;BME280;71206;48.564;-123.458;2023-11-18T01:07:37;100825.30;;;9.25;59.08
29063;BME280;71206;48.564;-123.458;2023-11-18T01:10:04;100825.29;;;9.04;60.79
29063;BME280;71206;48.564;-123.458;2023-11-18T01:12:29;100822.09;;;9.17;59.73
29063;BME280;71206;48.564;-123.458;2023-11-18T01:14:55;100821.35;;;9.13;59.71
29063;BME280;71206;48.564;-123.458;2023-11-18T01:17:18;100818.76;;;9.13;59.34
29063;BME280;71206;48.564;-123.458;2023-11-18T01:19:44;100820.22;;;8.84;60.70
29063;BME280;71206;48.564;-123.458;2023-11-18T01:22:10;100825.01;;;8.25;61.58
29063;BME280;71206;48.564;-123.458;2023-11-18T01:24:35;100824.14;;;8.88;61.77
29063;BME280;71206;48.564;-123.458;2023-11-18T01:27:01;100815.96;;;8.79;61.02
29063;BME280;71206;48.564;-123.458;2023-11-18T01:29:27;100814.68;;;8.70;60.58
29063;BME280;71206;48.564;-123.458;2023-11-18T01:31:53;100810.12;;;9.26;59.49
29063;BME280;71206;48.564;-123.458;2023-11-18T01:34:17;100823.03;;;8.56;60.05
29063;BME280;71206;48.564;-123.458;2023-11-18T01:36:43;100820.69;;;8.65;61.38
29063;BME280;71206;48.564;-123.458;2023-11-18T01:39:11;100812.94;;;9.15;58.88
29063;BME280;71206;48.564;-123.458;2023-11-18T01:41:35;100817.11;;;8.92;59.86
29063;BME280;71206;48.564;-123.458;2023-11-18T01:43:58;100818.05;;;8.79;60.24
29063;BME280;71206;48.564;-123.458;2023-11-18T01:46:25;100820.27;;;8.98;59.86
29063;BME280;71206;48.564;-123.458;2023-11-18T01:48:49;100821.22;;;8.15;64.41
29063;BME280;71206;48.564;-123.458;2023-11-18T01:51:15;100820.62;;;7.63;67.70
29063;BME280;71206;48.564;-123.458;2023-11-18T01:53:40;100821.54;;;8.41;64.92
29063;BME280;71206;48.564;-123.458;2023-11-18T01:56:07;100822.79;;;8.24;64.30
29063;BME280;71206;48.564;-123.458;2023-11-18T01:58:30;100821.24;;;7.22;69.61
29063;BME280;71206;48.564;-123.458;2023-11-18T02:00:56;100823.22;;;7.74;68.84
29063;BME280;71206;48.564;-123.458;2023-11-18T02:03:20;100821.60;;;8.20;64.61
29063;BME280;71206;48.564;-123.458;2023-11-18T02:05:46;100812.23;;;7.47;68.03
29063;BME280;71206;48.564;-123.458;2023-11-18T02:08:11;100812.03;;;7.14;70.90
29063;BME280;71206;48.564;-123.458;2023-11-18T02:10:45;100812.45;;;6.99;74.01
29063;BME280;71206;48.564;-123.458;2023-11-18T02:13:07;100807.25;;;7.38;72.05
29063;BME280;71206;48.564;-123.458;2023-11-18T02:15:29;100804.28;;;7.66;70.98
29063;BME280;71206;48.564;-123.458;2023-11-18T02:17:54;100804.72;;;7.47;69.51
29063;BME280;71206;48.564;-123.458;2023-11-18T02:20:18;100807.75;;;8.06;67.41
29063;BME280;71206;48.564;-123.458;2023-11-18T02:22:44;100812.58;;;8.28;66.40
29063;BME280;71206;48.564;-123.458;2023-11-18T02:25:10;100812.04;;;7.98;66.76
29063;BME280;71206;48.564;-123.458;2023-11-18T02:27:34;100809.78;;;7.25;69.35
29063;BME280;71206;48.564;-123.458;2023-11-18T02:30:00;100806.53;;;7.45;70.17
29063;BME280;71206;48.564;-123.458;2023-11-18T02:32:31;100805.07;;;7.70;67.03
29063;BME280;71206;48.564;-123.458;2023-11-18T02:35:00;100803.79;;;7.84;67.66
29063;BME280;71206;48.564;-123.458;2023-11-18T02:37:17;100805.38;;;7.44;69.71
29063;BME280;71206;48.564;-123.458;2023-11-18T02:39:45;100803.00;;;7.59;67.99
29063;BME280;71206;48.564;-123.458;2023-11-18T02:42:09;100800.13;;;7.24;70.60
29063;BME280;71206;48.564;-123.458;2023-11-18T02:44:32;100797.65;;;7.40;70.45
29063;BME280;71206;48.564;-123.458;2023-11-18T02:46:58;100796.52;;;7.59;71.77
29063;BME280;71206;48.564;-123.458;2023-11-18T02:49:25;100795.92;;;7.20;73.88
29063;BME280;71206;48.564;-123.458;2023-11-18T02:51:50;100796.68;;;7.02;74.20
29063;BME280;71206;48.564;-123.458;2023-11-18T02:54:18;100793.50;;;7.43;72.00
29063;BME280;71206;48.564;-123.458;2023-11-18T02:56:41;100793.28;;;6.46;80.50
29063;BME280;71206;48.564;-123.458;2023-11-18T02:59:07;100795.10;;;7.08;79.74
29063;BME280;71206;48.564;-123.458;2023-11-18T03:01:31;100799.28;;;6.37;79.85
29063;BME280;71206;48.564;-123.458;2023-11-18T03:03:57;100797.25;;;6.69;79.28
29063;BME280;71206;48.564;-123.458;2023-11-18T03:06:22;100795.62;;;6.78;77.96
29063;BME280;71206;48.564;-123.458;2023-11-18T03:08:48;100791.27;;;7.04;76.24
29063;BME280;71206;48.564;-123.458;2023-11-18T03:11:14;100788.55;;;6.76;78.36
29063;BME280;71206;48.564;-123.458;2023-11-18T03:13:39;100787.48;;;7.20;76.16
29063;BME280;71206;48.564;-123.458;2023-11-18T03:16:06;100785.73;;;6.87;77.97
29063;BME280;71206;48.564;-123.458;2023-11-18T03:18:28;100782.34;;;6.72;77.07
29063;BME280;71206;48.564;-123.458;2023-11-18T03:20:53;100779.64;;;7.15;74.77
29063;BME280;71206;48.564;-123.458;2023-11-18T03:23:19;100778.46;;;6.62;79.71
29063;BME280;71206;48.564;-123.458;2023-11-18T03:25:46;100777.26;;;6.67;79.99
29063;BME280;71206;48.564;-123.458;2023-11-18T03:28:10;100772.91;;;6.94;76.56
29063;BME280;71206;48.564;-123.458;2023-11-18T03:30:36;100776.56;;;7.24;74.57
29063;BME280;71206;48.564;-123.458;2023-11-18T03:33:01;100775.36;;;7.43;73.51
29063;BME280;71206;48.564;-123.458;2023-11-18T03:35:26;100775.63;;;6.79;78.53
29063;BME280;71206;48.564;-123.458;2023-11-18T03:37:52;100774.85;;;6.65;81.15
29063;BME280;71206;48.564;-123.458;2023-11-18T03:40:20;100769.21;;;6.36;82.79
29063;BME280;71206;48.564;-123.458;2023-11-18T03:42:43;100763.21;;;6.73;79.52
29063;BME280;71206;48.564;-123.458;2023-11-18T03:45:09;100759.33;;;6.81;78.93
29063;BME280;71206;48.564;-123.458;2023-11-18T03:47:33;100761.40;;;6.88;78.94
29063;BME280;71206;48.564;-123.458;2023-11-18T03:49:59;100761.74;;;6.41;81.60
29063;BME280;71206;48.564;-123.458;2023-11-18T03:52:24;100755.98;;;7.07;78.60
29063;BME280;71206;48.564;-123.458;2023-11-18T03:54:50;100753.89;;;7.27;74.20
29063;BME280;71206;48.564;-123.458;2023-11-18T03:57:15;100755.63;;;6.60;78.86
29063;BME280;71206;48.564;-123.458;2023-11-18T03:59:41;100754.17;;;6.91;77.87
29063;BME280;71206;48.564;-123.458;2023-11-18T04:02:08;100754.56;;;6.94;76.40
29063;BME280;71206;48.564;-123.458;2023-11-18T04:04:33;100754.06;;;6.29;80.40
29063;BME280;71206;48.564;-123.458;2023-11-18T04:06:59;100753.52;;;6.90;77.20
29063;BME280;71206;48.564;-123.458;2023-11-18T04:09:24;100753.66;;;6.63;79.30
29063;BME280;71206;48.564;-123.458;2023-11-18T04:11:48;100751.30;;;6.59;78.95
29063;BME280;71206;48.564;-123.458;2023-11-18T04:14:15;100748.26;;;6.88;76.75
29063;BME280;71206;48.564;-123.458;2023-11-18T04:16:40;100751.92;;;6.27;82.83
29063;BME280;71206;48.564;-123.458;2023-11-18T04:19:05;100745.49;;;6.50;80.93
29063;BME280;71206;48.564;-123.458;2023-11-18T04:21:31;100740.35;;;6.57;79.98
29063;BME280;71206;48.564;-123.458;2023-11-18T04:23:58;100740.66;;;6.37;82.39
29063;BME280;71206;48.564;-123.458;2023-11-18T04:26:23;100739.74;;;6.10;85.02
29063;BME280;71206;48.564;-123.458;2023-11-18T04:28:46;100737.45;;;6.14;83.79
29063;BME280;71206;48.564;-123.458;2023-11-18T04:31:12;100734.84;;;6.17;88.58
29063;BME280;71206;48.564;-123.458;2023-11-18T04:33:37;100729.92;;;6.21;85.23
29063;BME280;71206;48.564;-123.458;2023-11-18T04:36:04;100729.69;;;6.19;85.85
29063;BME280;71206;48.564;-123.458;2023-11-18T04:38:28;100729.43;;;5.99;85.25
29063;BME280;71206;48.564;-123.458;2023-11-18T04:40:54;100731.73;;;5.95;88.72
29063;BME280;71206;48.564;-123.458;2023-11-18T04:43:19;100730.62;;;6.24;85.11
29063;BME280;71206;48.564;-123.458;2023-11-18T04:45:45;100729.74;;;6.72;80.19
29063;BME280;71206;48.564;-123.458;2023-11-18T04:48:10;100732.43;;;5.92;84.38
29063;BME280;71206;48.564;-123.458;2023-11-18T04:50:37;100730.45;;;6.11;84.31
29063;BME280;71206;48.564;-123.458;2023-11-18T04:53:02;100730.07;;;6.11;85.13
29063;BME280;71206;48.564;-123.458;2023-11-18T04:55:27;100727.21;;;6.08;83.84
29063;BME280;71206;48.564;-123.458;2023-11-18T04:57:52;100727.98;;;6.54;82.03
29063;BME280;71206;48.564;-123.458;2023-11-18T05:00:18;100722.87;;;6.40;82.67
29063;BME280;71206;48.564;-123.458;2023-11-18T05:02:43;100719.48;;;6.26;86.31
29063;BME280;71206;48.564;-123.458;2023-11-18T05:05:10;100719.66;;;6.11;87.14
29063;BME280;71206;48.564;-123.458;2023-11-18T05:07:34;100721.66;;;5.71;91.72
29063;BME280;71206;48.564;-123.458;2023-11-18T05:09:59;100716.41;;;6.60;87.07
29063;BME280;71206;48.564;-123.458;2023-11-18T05:12:24;100717.35;;;6.43;85.28
29063;BME280;71206;48.564;-123.458;2023-11-18T05:14:49;100717.16;;;6.20;87.08
29063;BME280;71206;48.564;-123.458;2023-11-18T05:17:18;100718.91;;;6.15;88.78
29063;BME280;71206;48.564;-123.458;2023-11-18T05:19:41;100714.20;;;6.41;87.30
29063;BME280;71206;48.564;-123.458;2023-11-18T05:22:06;100714.97;;;6.11;89.85
29063;BME280;71206;48.564;-123.458;2023-11-18T05:24:32;100714.29;;;5.75;93.41
29063;BME280;71206;48.564;-123.458;2023-11-18T05:26:57;100711.27;;;6.22;89.32
29063;BME280;71206;48.564;-123.458;2023-11-18T05:29:22;100711.79;;;6.40;89.74
29063;BME280;71206;48.564;-123.458;2023-11-18T05:31:48;100715.58;;;5.91;91.72
29063;BME280;71206;48.564;-123.458;2023-11-18T05:34:13;100711.26;;;5.90;89.45
29063;BME280;71206;48.564;-123.458;2023-11-18T05:36:39;100709.24;;;5.94;88.97
29063;BME280;71206;48.564;-123.458;2023-11-18T05:39:05;100711.17;;;5.77;91.60
29063;BME280;71206;48.564;-123.458;2023-11-18T05:41:30;100710.20;;;5.86;92.52
29063;BME280;71206;48.564;-123.458;2023-11-18T05:43:59;100702.01;;;6.28;84.07
29063;BME280;71206;48.564;-123.458;2023-11-18T05:46:21;100703.07;;;5.54;89.88
29063;BME280;71206;48.564;-123.458;2023-11-18T05:48:55;100700.60;;;5.50;91.14
29063;BME280;71206;48.564;-123.458;2023-11-18T05:51:13;100700.87;;;5.70;89.42
29063;BME280;71206;48.564;-123.458;2023-11-18T05:53:41;100701.61;;;5.48;93.57
29063;BME280;71206;48.564;-123.458;2023-11-18T05:56:05;100696.01;;;6.25;86.96
29063;BME280;71206;48.564;-123.458;2023-11-18T05:58:29;100699.98;;;5.87;89.18
29063;BME280;71206;48.564;-123.458;2023-11-18T06:01:00;100693.45;;;6.01;87.67
29063;BME280;71206;48.564;-123.458;2023-11-18T06:03:19;100695.71;;;5.83;87.11
29063;BME280;71206;48.564;-123.458;2023-11-18T06:05:45;100694.01;;;5.80;84.22
29063;BME280;71206;48.564;-123.458;2023-11-18T06:08:11;100693.55;;;5.32;88.87
29063;BME280;71206;48.564;-123.458;2023-11-18T06:10:36;100692.61;;;4.99;91.96
29063;BME280;71206;48.564;-123.458;2023-11-18T06:13:02;100688.92;;;5.45;91.58
29063;BME280;71206;48.564;-123.458;2023-11-18T06:15:27;100682.55;;;4.83;91.94
29063;BME280;71206;48.564;-123.458;2023-11-18T06:17:52;100680.46;;;5.68;88.17
29063;BME280;71206;48.564;-123.458;2023-11-18T06:20:18;100682.34;;;5.76;87.75
29063;BME280;71206;48.564;-123.458;2023-11-18T06:22:44;100680.49;;;5.43;88.21
29063;BME280;71206;48.564;-123.458;2023-11-18T06:25:09;100676.21;;;5.97;83.48
29063;BME280;71206;48.564;-123.458;2023-11-18T06:27:34;100680.18;;;5.66;85.86
29063;BME280;71206;48.564;-123.458;2023-11-18T06:29:59;100682.58;;;5.44;89.59
29063;BME280;71206;48.564;-123.458;2023-11-18T06:32:25;100680.54;;;5.72;84.94
29063;BME280;71206;48.564;-123.458;2023-11-18T06:34:50;100679.82;;;5.74;86.44
29063;BME280;71206;48.564;-123.458;2023-11-18T06:37:16;100674.18;;;5.89;85.29
29063;BME280;71206;48.564;-123.458;2023-11-18T06:39:42;100671.55;;;5.89;84.31
29063;BME280;71206;48.564;-123.458;2023-11-18T06:42:08;100668.03;;;5.80;85.26
29063;BME280;71206;48.564;-123.458;2023-11-18T06:44:32;100666.39;;;4.98;90.49
29063;BME280;71206;48.564;-123.458;2023-11-18T06:46:57;100664.45;;;5.50;89.23
29063;BME280;71206;48.564;-123.458;2023-11-18T06:49:23;100662.80;;;5.86;83.49
29063;BME280;71206;48.564;-123.458;2023-11-18T06:51:48;100665.52;;;5.42;87.56
29063;BME280;71206;48.564;-123.458;2023-11-18T06:54:13;100666.04;;;5.71;87.81
29063;BME280;71206;48.564;-123.458;2023-11-18T06:56:41;100663.38;;;5.41;86.91
29063;BME280;71206;48.564;-123.458;2023-11-18T06:59:04;100668.57;;;5.39;85.86
29063;BME280;71206;48.564;-123.458;2023-11-18T07:01:31;100665.60;;;5.70;86.26
29063;BME280;71206;48.564;-123.458;2023-11-18T07:03:55;100660.74;;;5.36;86.54
29063;BME280;71206;48.564;-123.458;2023-11-18T07:06:21;100659.99;;;5.40;84.55
29063;BME280;71206;48.564;-123.458;2023-11-18T07:08:46;100660.75;;;5.08;87.17
29063;BME280;71206;48.564;-123.458;2023-11-18T07:11:11;100658.17;;;5.94;82.07
29063;BME280;71206;48.564;-123.458;2023-11-18T07:13:37;100660.29;;;5.66;82.82
29063;BME280;71206;48.564;-123.458;2023-11-18T07:16:03;100657.34;;;5.30;85.25
29063;BME280;71206;48.564;-123.458;2023-11-18T07:18:29;100654.72;;;5.91;81.31
29063;BME280;71206;48.564;-123.458;2023-11-18T07:20:55;100657.74;;;5.36;87.87
29063;BME280;71206;48.564;-123.458;2023-11-18T07:23:20;100654.38;;;5.12;86.85
29063;BME280;71206;48.564;-123.458;2023-11-18T07:25:45;100649.49;;;5.37;86.60
29063;BME280;71206;48.564;-123.458;2023-11-18T07:28:11;100651.48;;;5.10;88.92
29063;BME280;71206;48.564;-123.458;2023-11-18T07:30:36;100653.80;;;5.04;92.77
29063;BME280;71206;48.564;-123.458;2023-11-18T07:33:01;100646.58;;;5.73;84.12
29063;BME280;71206;48.564;-123.458;2023-11-18T07:35:28;100650.07;;;5.69;83.69
29063;BME280;71206;48.564;-123.458;2023-11-18T07:37:52;100653.50;;;5.43;86.06
29063;BME280;71206;48.564;-123.458;2023-11-18T07:40:18;100651.62;;;5.54;85.87
29063;BME280;71206;48.564;-123.458;2023-11-18T07:42:43;100648.69;;;5.27;87.34
29063;BME280;71206;48.564;-123.458;2023-11-18T07:45:09;100652.19;;;4.97;88.87
29063;BME280;71206;48.564;-123.458;2023-11-18T07:47:35;100651.44;;;4.74;90.67
29063;BME280;71206;48.564;-123.458;2023-11-18T07:50:01;100647.87;;;5.18;83.14
29063;BME280;71206;48.564;-123.458;2023-11-18T07:52:27;100645.19;;;5.01;85.16
29063;BME280;71206;48.564;-123.458;2023-11-18T07:54:52;100648.17;;;5.52;83.25
29063;BME280;71206;48.564;-123.458;2023-11-18T07:57:17;100647.21;;;4.94;87.40
29063;BME280;71206;48.564;-123.458;2023-11-18T07:59:43;100647.30;;;5.04;85.93
29063;BME280;71206;48.564;-123.458;2023-11-18T08:02:09;100647.65;;;4.97;89.12
29063;BME280;71206;48.564;-123.458;2023-11-18T08:04:34;100645.90;;;5.09;89.04
29063;BME280;71206;48.564;-123.458;2023-11-18T08:07:00;100644.06;;;4.99;89.84
29063;BME280;71206;48.564;-123.458;2023-11-18T08:09:25;100644.17;;;5.00;88.02
29063;BME280;71206;48.564;-123.458;2023-11-18T08:11:50;100642.07;;;6.09;79.90
29063;BME280;71206;48.564;-123.458;2023-11-18T08:14:16;100642.93;;;5.36;82.25
29063;BME280;71206;48.564;-123.458;2023-11-18T08:16:40;100639.77;;;4.92;85.65
29063;BME280;71206;48.564;-123.458;2023-11-18T08:19:05;100639.39;;;5.21;85.61
29063;BME280;71206;48.564;-123.458;2023-11-18T08:21:32;100637.11;;;4.70;89.25
29063;BME280;71206;48.564;-123.458;2023-11-18T08:23:57;100631.90;;;5.05;86.93
29063;BME280;71206;48.564;-123.458;2023-11-18T08:26:23;100626.26;;;5.10;89.32
29063;BME280;71206;48.564;-123.458;2023-11-18T08:28:49;100624.59;;;4.80;90.30
29063;BME280;71206;48.564;-123.458;2023-11-18T08:31:14;100626.90;;;5.28;89.54
29063;BME280;71206;48.564;-123.458;2023-11-18T08:33:38;100626.62;;;5.10;89.53
29063;BME280;71206;48.564;-123.458;2023-11-18T08:36:04;100627.79;;;5.34;87.97
29063;BME280;71206;48.564;-123.458;2023-11-18T08:38:29;100622.72;;;5.59;86.63
29063;BME280;71206;48.564;-123.458;2023-11-18T08:40:55;100622.84;;;5.65;82.86
29063;BME280;71206;48.564;-123.458;2023-11-18T08:43:20;100625.61;;;5.18;85.95
29063;BME280;71206;48.564;-123.458;2023-11-18T08:45:45;100622.03;;;5.26;86.86
29063;BME280;71206;48.564;-123.458;2023-11-18T08:48:11;100615.19;;;4.92;86.98
29063;BME280;71206;48.564;-123.458;2023-11-18T08:50:37;100612.37;;;4.96;91.17
29063;BME280;71206;48.564;-123.458;2023-11-18T08:53:02;100616.41;;;4.98;89.14
29063;BME280;71206;48.564;-123.458;2023-11-18T08:55:31;100613.00;;;5.43;86.35
29063;BME280;71206;48.564;-123.458;2023-11-18T08:57:54;100609.53;;;5.31;85.80
29063;BME280;71206;48.564;-123.458;2023-11-18T09:00:19;100609.93;;;4.58;92.24
29063;BME280;71206;48.564;-123.458;2023-11-18T09:02:50;100604.76;;;4.75;92.04
29063;BME280;71206;48.564;-123.458;2023-11-18T09:05:10;100599.57;;;5.25;89.24
29063;BME280;71206;48.564;-123.458;2023-11-18T09:07:36;100600.64;;;5.17;89.10
29063;BME280;71206;48.564;-123.458;2023-11-18T09:10:02;100597.32;;;5.43;87.44
29063;BME280;71206;48.564;-123.458;2023-11-18T09:12:27;100600.37;;;5.19;86.61
29063;BME280;71206;48.564;-123.458;2023-11-18T09:14:52;100594.46;;;5.61;85.44
29063;BME280;71206;48.564;-123.458;2023-11-18T09:17:19;100584.87;;;6.19;78.83
29063;BME280;71206;48.564;-123.458;2023-11-18T09:19:43;100581.00;;;4.84;85.00
29063;BME280;71206;48.564;-123.458;2023-11-18T09:22:07;100578.85;;;4.70;89.42
29063;BME280;71206;48.564;-123.458;2023-11-18T09:24:33;100580.65;;;4.68;90.87
29063;BME280;71206;48.564;-123.458;2023-11-18T09:26:59;100582.16;;;4.49;94.64
29063;BME280;71206;48.564;-123.458;2023-11-18T09:29:25;100577.10;;;5.68;82.71
29063;BME280;71206;48.564;-123.458;2023-11-18T09:31:51;100573.28;;;4.85;87.44
29063;BME280;71206;48.564;-123.458;2023-11-18T09:34:16;100569.04;;;4.84;90.67
29063;BME280;71206;48.564;-123.458;2023-11-18T09:36:41;100569.77;;;4.65;91.75
29063;BME280;71206;48.564;-123.458;2023-11-18T09:39:07;100568.25;;;4.66;91.79
29063;BME280;71206;48.564;-123.458;2023-11-18T09:41:32;100565.04;;;4.91;94.67
29063;BME280;71206;48.564;-123.458;2023-11-18T09:43:57;100560.34;;;4.64;96.55
29063;BME280;71206;48.564;-123.458;2023-11-18T09:46:24;100558.94;;;4.68;95.88
29063;BME280;71206;48.564;-123.458;2023-11-18T09:48:50;100550.34;;;5.03;91.60
29063;BME280;71206;48.564;-123.458;2023-11-18T09:51:21;100551.79;;;5.01;90.62
29063;BME280;71206;48.564;-123.458;2023-11-18T09:53:41;100549.02;;;5.02;89.97
29063;BME280;71206;48.564;-123.458;2023-11-18T09:56:10;100542.13;;;4.96;88.32
29063;BME280;71206;48.564;-123.458;2023-11-18T09:58:37;100542.99;;;5.17;88.74
29063;BME280;71206;48.564;-123.458;2023-11-18T10:00:59;100547.71;;;5.24;88.62
29063;BME280;71206;48.564;-123.458;2023-11-18T10:03:21;100550.69;;;5.14;90.08
29063;BME280;71206;48.564;-123.458;2023-11-18T10:05:47;100551.76;;;5.23;87.05
29063;BME280;71206;48.564;-123.458;2023-11-18T10:08:13;100553.25;;;4.74;90.95
29063;BME280;71206;48.564;-123.458;2023-11-18T10:10:38;100552.64;;;4.70;92.53
29063;BME280;71206;48.564;-123.458;2023-11-18T10:13:05;100550.93;;;5.00;90.39
29063;BME280;71206;48.564;-123.458;2023-11-18T10:15:28;100548.61;;;4.92;91.94
29063;BME280;71206;48.564;-123.458;2023-11-18T10:17:53;100543.67;;;4.83;93.64
29063;BME280;71206;48.564;-123.458;2023-11-18T10:20:23;100536.75;;;5.09;91.05
29063;BME280;71206;48.564;-123.458;2023-11-18T10:22:44;100533.57;;;5.27;91.48
29063;BME280;71206;48.564;-123.458;2023-11-18T10:25:09;100526.56;;;5.19;89.16
29063;BME280;71206;48.564;-123.458;2023-11-18T10:27:36;100528.70;;;5.23;91.31
29063;BME280;71206;48.564;-123.458;2023-11-18T10:30:03;100522.57;;;5.50;90.74
29063;BME280;71206;48.564;-123.458;2023-11-18T10:32:28;100520.62;;;5.27;93.13
29063;BME280;71206;48.564;-123.458;2023-11-18T10:34:51;100514.71;;;4.75;98.26
29063;BME280;71206;48.564;-123.458;2023-11-18T10:37:17;100512.02;;;5.48;94.12
29063;BME280;71206;48.564;-123.458;2023-11-18T10:39:43;100506.32;;;5.60;89.46
29063;BME280;71206;48.564;-123.458;2023-11-18T10:42:06;100502.14;;;5.21;92.97
29063;BME280;71206;48.564;-123.458;2023-11-18T10:44:34;100499.37;;;5.70;91.21
29063;BME280;71206;48.564;-123.458;2023-11-18T10:46:57;100497.25;;;5.88;89.83
29063;BME280;71206;48.564;-123.458;2023-11-18T10:49:22;100493.42;;;5.84;87.41
29063;BME280;71206;48.564;-123.458;2023-11-18T10:51:48;100487.18;;;5.24;92.92
29063;BME280;71206;48.564;-123.458;2023-11-18T10:54:16;100487.79;;;5.02;95.29
29063;BME280;71206;48.564;-123.458;2023-11-18T10:56:47;100484.60;;;5.60;91.68
29063;BME280;71206;48.564;-123.458;2023-11-18T10:59:06;100483.40;;;5.33;90.95
29063;BME280;71206;48.564;-123.458;2023-11-18T11:01:31;100480.99;;;5.55;89.55
29063;BME280;71206;48.564;-123.458;2023-11-18T11:03:56;100478.72;;;4.97;93.50
29063;BME280;71206;48.564;-123.458;2023-11-18T11:06:21;100484.95;;;5.65;88.65
29063;BME280;71206;48.564;-123.458;2023-11-18T11:08:46;100485.06;;;5.70;84.67
29063;BME280;71206;48.564;-123.458;2023-11-18T11:11:13;100483.90;;;5.54;84.46
29063;BME280;71206;48.564;-123.458;2023-11-18T11:13:36;100481.22;;;5.83;83.41
29063;BME280;71206;48.564;-123.458;2023-11-18T11:16:04;100474.00;;;5.58;85.23
29063;BME280;71206;48.564;-123.458;2023-11-18T11:18:29;100469.96;;;5.88;82.89
29063;BME280;71206;48.564;-123.458;2023-11-18T11:21:01;100463.37;;;5.37;86.55
29063;BME280;71206;48.564;-123.458;2023-11-18T11:23:23;100452.28;;;5.22;92.87
29063;BME280;71206;48.564;-123.458;2023-11-18T11:25:53;100448.58;;;5.02;91.11
29063;BME280;71206;48.564;-123.458;2023-11-18T11:28:14;100447.20;;;5.18;93.61
29063;BME280;71206;48.564;-123.458;2023-11-18T11:30:43;100443.89;;;4.76;95.82
29063;BME280;71206;48.564;-123.458;2023-11-18T11:33:08;100438.77;;;4.83;94.65
29063;BME280;71206;48.564;-123.458;2023-11-18T11:35:30;100443.06;;;5.01;95.39
29063;BME280;71206;48.564;-123.458;2023-11-18T11:37:54;100443.89;;;5.75;89.21
29063;BME280;71206;48.564;-123.458;2023-11-18T11:40:17;100435.52;;;5.54;88.58
29063;BME280;71206;48.564;-123.458;2023-11-18T11:42:44;100434.59;;;5.86;87.72
29063;BME280;71206;48.564;-123.458;2023-11-18T11:45:13;100429.77;;;5.78;85.39
29063;BME280;71206;48.564;-123.458;2023-11-18T11:47:34;100423.52;;;5.12;91.95
29063;BME280;71206;48.564;-123.458;2023-11-18T11:50:05;100420.82;;;4.98;95.53
29063;BME280;71206;48.564;-123.458;2023-11-18T11:52:30;100416.16;;;4.81;98.38
29063;BME280;71206;48.564;-123.458;2023-11-18T11:54:59;100410.61;;;4.65;100.00
29063;BME280;71206;48.564;-123.458;2023-11-18T11:57:17;100399.16;;;5.21;100.00
29063;BME280;71206;48.564;-123.458;2023-11-18T11:59:54;100392.98;;;4.90;100.00
29063;BME280;71206;48.564;-123.458;2023-11-18T12:02:10;100393.49;;;5.67;94.55
29063;BME280;71206;48.564;-123.458;2023-11-18T12:04:32;100387.96;;;6.10;86.74
29063;BME280;71206;48.564;-123.458;2023-11-18T12:06:58;100389.00;;;5.86;88.53
29063;BME280;71206;48.564;-123.458;2023-11-18T12:09:29;100393.05;;;5.56;89.85
29063;BME280;71206;48.564;-123.458;2023-11-18T12:11:49;100385.94;;;5.69;89.88
29063;BME280;71206;48.564;-123.458;2023-11-18T12:14:15;100378.51;;;4.92;93.41
29063;BME280;71206;48.564;-123.458;2023-11-18T12:28:49;100364.35;;;4.79;91.98
29063;BME280;71206;48.564;-123.458;2023-11-18T12:31:11;100363.60;;;5.21;90.87
29063;BME280;71206;48.564;-123.458;2023-11-18T12:40:54;100352.72;;;5.05;91.61